sensor_id;sensor_type;location;lat;lon;timestamp;temperature;humidity
15916;DHT22;8057;47.830;-3.870;2022-08-11T00:00:49;23.40;99.90
15916;DHT22;8057;47.830;-3.870;2022-08-11T00:05:03;23.40;99.90
15916;DHT22;8057;47.830;-3.870;2022-08-11T00:09:15;23.40;99.90
15916;DHT22;8057;47.830;-3.870;2022-08-11T00:13:32;23.30;99.90
15916;DHT22;8057;47.830;-3.870;2022-08-11T00:17:43;23.30;99.90
15916;DHT22;8057;47.830;-3.870;2022-08-11T00:21:53;23.20;99.90
15916;DHT22;8057;47.830;-3.870;2022-08-11T00:26:13;23.20;99.90
15916;DHT22;8057;47.830;-3.870;2022-08-11T00:30:21;23.20;99.90
15916;DHT22;8057;47.830;-3.870;2022-08-11T00:34:35;23.20;99.90
15916;DHT22;8057;47.830;-3.870;2022-08-11T00:38:49;23.20;99.90
15916;DHT22;8057;47.830;-3.870;2022-08-11T00:43:11;23.20;99.90
15916;DHT22;8057;47.830;-3.870;2022-08-11T00:47:42;23.10;99.90
15916;DHT22;8057;47.830;-3.870;2022-08-11T00:52:09;23.10;99.90
15916;DHT22;8057;47.830;-3.870;2022-08-11T00:56:56;23.00;99.90
15916;DHT22;8057;47.830;-3.870;2022-08-11T01:01:46;23.00;99.90
15916;DHT22;8057;47.830;-3.870;2022-08-11T01:06:05;22.90;99.90
15916;DHT22;8057;47.830;-3.870;2022-08-11T01:10:53;22.90;99.90
15916;DHT22;8057;47.830;-3.870;2022-08-11T01:15:34;22.90;99.90
15916;DHT22;8057;47.830;-3.870;2022-08-11T01:20:07;22.80;99.90
15916;DHT22;8057;47.830;-3.870;2022-08-11T01:45:04;22.60;99.90
15916;DHT22;8057;47.830;-3.870;2022-08-11T01:49:23;22.60;99.90
15916;DHT22;8057;47.830;-3.870;2022-08-11T01:53:59;22.60;99.90
15916;DHT22;8057;47.830;-3.870;2022-08-11T01:58:16;22.60;99.90
15916;DHT22;8057;47.830;-3.870;2022-08-11T02:02:52;22.60;99.90
15916;DHT22;8057;47.830;-3.870;2022-08-11T02:07:15;22.60;99.90
15916;DHT22;8057;47.830;-3.870;2022-08-11T02:11:27;22.60;99.90
15916;DHT22;8057;47.830;-3.870;2022-08-11T02:15:46;22.50;99.90
15916;DHT22;8057;47.830;-3.870;2022-08-11T02:20:03;22.40;99.90
15916;DHT22;8057;47.830;-3.870;2022-08-11T02:24:36;22.40;99.90
15916;DHT22;8057;47.830;-3.870;2022-08-11T02:28:56;22.40;99.90
15916;DHT22;8057;47.830;-3.870;2022-08-11T02:33:20;22.40;99.90
15916;DHT22;8057;47.830;-3.870;2022-08-11T02:37:44;22.30;99.90
15916;DHT22;8057;47.830;-3.870;2022-08-11T02:42:03;22.30;99.90
15916;DHT22;8057;47.830;-3.870;2022-08-11T02:46:57;22.40;99.90
15916;DHT22;8057;47.830;-3.870;2022-08-11T02:51:13;22.30;99.90
15916;DHT22;8057;47.830;-3.870;2022-08-11T02:55:34;22.20;99.90
15916;DHT22;8057;47.830;-3.870;2022-08-11T03:00:06;22.20;99.90
15916;DHT22;8057;47.830;-3.870;2022-08-11T03:04:21;22.20;99.90
15916;DHT22;8057;47.830;-3.870;2022-08-11T03:08:49;22.10;99.90
15916;DHT22;8057;47.830;-3.870;2022-08-11T03:13:09;22.00;99.90
15916;DHT22;8057;47.830;-3.870;2022-08-11T03:17:45;22.00;99.90
15916;DHT22;8057;47.830;-3.870;2022-08-11T03:22:08;22.00;99.90
15916;DHT22;8057;47.830;-3.870;2022-08-11T03:26:25;21.90;99.90
15916;DHT22;8057;47.830;-3.870;2022-08-11T03:30:45;22.00;99.90
15916;DHT22;8057;47.830;-3.870;2022-08-11T03:34:57;21.90;99.90
15916;DHT22;8057;47.830;-3.870;2022-08-11T03:39:11;21.80;99.90
15916;DHT22;8057;47.830;-3.870;2022-08-11T03:43:43;21.80;99.90
15916;DHT22;8057;47.830;-3.870;2022-08-11T03:48:12;21.80;99.90
15916;DHT22;8057;47.830;-3.870;2022-08-11T03:52:39;21.80;99.90
15916;DHT22;8057;47.830;-3.870;2022-08-11T04:02:07;21.80;99.90
15916;DHT22;8057;47.830;-3.870;2022-08-11T04:06:52;21.70;99.90
15916;DHT22;8057;47.830;-3.870;2022-08-11T04:11:35;21.70;99.90
15916;DHT22;8057;47.830;-3.870;2022-08-11T04:20:50;21.50;99.90
15916;DHT22;8057;47.830;-3.870;2022-08-11T04:25:27;21.50;99.90
15916;DHT22;8057;47.830;-3.870;2022-08-11T04:29:54;21.40;99.90
15916;DHT22;8057;47.830;-3.870;2022-08-11T04:34:40;21.40;99.90
15916;DHT22;8057;47.830;-3.870;2022-08-11T04:39:07;21.30;99.90
15916;DHT22;8057;47.830;-3.870;2022-08-11T04:53:49;21.10;99.90
15916;DHT22;8057;47.830;-3.870;2022-08-11T04:58:23;21.10;99.90
15916;DHT22;8057;47.830;-3.870;2022-08-11T05:03:24;21.00;99.90
15916;DHT22;8057;47.830;-3.870;2022-08-11T05:12:30;20.80;99.90
15916;DHT22;8057;47.830;-3.870;2022-08-11T05:16:49;20.90;99.90
15916;DHT22;8057;47.830;-3.870;2022-08-11T05:21:20;20.90;99.90
15916;DHT22;8057;47.830;-3.870;2022-08-11T05:25:54;20.90;99.90
15916;DHT22;8057;47.830;-3.870;2022-08-11T05:30:42;20.90;99.90
15916;DHT22;8057;47.830;-3.870;2022-08-11T05:35:09;20.90;99.90
15916;DHT22;8057;47.830;-3.870;2022-08-11T05:39:44;20.90;99.90
15916;DHT22;8057;47.830;-3.870;2022-08-11T05:44:17;20.90;99.90
15916;DHT22;8057;47.830;-3.870;2022-08-11T05:48:48;20.90;99.90
15916;DHT22;8057;47.830;-3.870;2022-08-11T05:53:15;20.90;99.90
15916;DHT22;8057;47.830;-3.870;2022-08-11T05:57:58;21.00;99.90
15916;DHT22;8057;47.830;-3.870;2022-08-11T06:02:07;21.00;99.90
15916;DHT22;8057;47.830;-3.870;2022-08-11T06:06:16;21.10;99.90
15916;DHT22;8057;47.830;-3.870;2022-08-11T06:10:28;21.30;99.90
15916;DHT22;8057;47.830;-3.870;2022-08-11T06:14:43;21.40;99.90
15916;DHT22;8057;47.830;-3.870;2022-08-11T06:18:54;21.50;99.90
15916;DHT22;8057;47.830;-3.870;2022-08-11T06:23:05;21.70;99.90
15916;DHT22;8057;47.830;-3.870;2022-08-11T06:27:18;21.90;99.90
15916;DHT22;8057;47.830;-3.870;2022-08-11T06:31:29;22.00;99.90
15916;DHT22;8057;47.830;-3.870;2022-08-11T06:35:48;22.30;99.90
15916;DHT22;8057;47.830;-3.870;2022-08-11T06:40:06;22.50;99.90
15916;DHT22;8057;47.830;-3.870;2022-08-11T06:44:23;22.60;99.90
15916;DHT22;8057;47.830;-3.870;2022-08-11T06:48:38;22.80;99.90
15916;DHT22;8057;47.830;-3.870;2022-08-11T06:52:47;22.90;99.90
15916;DHT22;8057;47.830;-3.870;2022-08-11T06:56:57;23.10;99.90
15916;DHT22;8057;47.830;-3.870;2022-08-11T07:01:45;23.30;99.90
15916;DHT22;8057;47.830;-3.870;2022-08-11T07:06:02;23.50;99.90
15916;DHT22;8057;47.830;-3.870;2022-08-11T07:10:38;23.80;99.90
15916;DHT22;8057;47.830;-3.870;2022-08-11T07:15:09;23.90;99.90
15916;DHT22;8057;47.830;-3.870;2022-08-11T07:19:57;24.10;99.90
15916;DHT22;8057;47.830;-3.870;2022-08-11T07:24:28;24.30;99.90
15916;DHT22;8057;47.830;-3.870;2022-08-11T07:29:10;24.50;99.90
15916;DHT22;8057;47.830;-3.870;2022-08-11T07:33:29;24.70;99.90
15916;DHT22;8057;47.830;-3.870;2022-08-11T07:38:08;24.80;99.90
15916;DHT22;8057;47.830;-3.870;2022-08-11T07:42:28;25.00;99.90
15916;DHT22;8057;47.830;-3.870;2022-08-11T07:46:40;25.20;99.90
15916;DHT22;8057;47.830;-3.870;2022-08-11T07:51:07;25.40;99.90
15916;DHT22;8057;47.830;-3.870;2022-08-11T07:55:33;25.60;99.90
15916;DHT22;8057;47.830;-3.870;2022-08-11T08:00:01;25.90;99.90
15916;DHT22;8057;47.830;-3.870;2022-08-11T08:04:27;26.10;99.90
15916;DHT22;8057;47.830;-3.870;2022-08-11T08:08:54;26.30;99.90
15916;DHT22;8057;47.830;-3.870;2022-08-11T08:13:21;26.60;99.80
15916;DHT22;8057;47.830;-3.870;2022-08-11T08:17:48;26.80;99.40
15916;DHT22;8057;47.830;-3.870;2022-08-11T08:22:19;27.10;99.30
15916;DHT22;8057;47.830;-3.870;2022-08-11T08:26:49;27.40;98.90
15916;DHT22;8057;47.830;-3.870;2022-08-11T08:31:08;27.60;98.70
15916;DHT22;8057;47.830;-3.870;2022-08-11T08:35:18;28.00;97.90
15916;DHT22;8057;47.830;-3.870;2022-08-11T08:39:28;28.30;97.50
15916;DHT22;8057;47.830;-3.870;2022-08-11T08:43:40;28.50;97.10
15916;DHT22;8057;47.830;-3.870;2022-08-11T08:47:58;28.90;97.40
15916;DHT22;8057;47.830;-3.870;2022-08-11T08:52:10;29.30;96.00
15916;DHT22;8057;47.830;-3.870;2022-08-11T08:56:39;29.60;95.60
15916;DHT22;8057;47.830;-3.870;2022-08-11T09:00:53;29.90;94.50
15916;DHT22;8057;47.830;-3.870;2022-08-11T09:05:03;30.30;94.90
15916;DHT22;8057;47.830;-3.870;2022-08-11T09:09:16;30.60;94.90
15916;DHT22;8057;47.830;-3.870;2022-08-11T09:13:26;30.90;94.00
15916;DHT22;8057;47.830;-3.870;2022-08-11T09:17:38;31.10;93.10
15916;DHT22;8057;47.830;-3.870;2022-08-11T09:21:49;31.40;92.90
15916;DHT22;8057;47.830;-3.870;2022-08-11T09:26:21;31.60;92.50
15916;DHT22;8057;47.830;-3.870;2022-08-11T09:30:50;32.00;92.50
15916;DHT22;8057;47.830;-3.870;2022-08-11T09:35:01;32.20;91.40
15916;DHT22;8057;47.830;-3.870;2022-08-11T09:39:11;32.40;91.80
15916;DHT22;8057;47.830;-3.870;2022-08-11T09:43:42;32.50;90.30
15916;DHT22;8057;47.830;-3.870;2022-08-11T09:48:19;32.50;91.00
15916;DHT22;8057;47.830;-3.870;2022-08-11T09:52:31;32.70;90.20
15916;DHT22;8057;47.830;-3.870;2022-08-11T09:56:40;33.10;90.10
15916;DHT22;8057;47.830;-3.870;2022-08-11T10:01:12;33.10;88.00
15916;DHT22;8057;47.830;-3.870;2022-08-11T10:05:37;33.30;89.60
15916;DHT22;8057;47.830;-3.870;2022-08-11T10:10:04;33.40;88.80
15916;DHT22;8057;47.830;-3.870;2022-08-11T10:14:15;33.30;87.50
15916;DHT22;8057;47.830;-3.870;2022-08-11T10:18:50;33.20;86.40
15916;DHT22;8057;47.830;-3.870;2022-08-11T10:23:01;33.50;88.20
15916;DHT22;8057;47.830;-3.870;2022-08-11T10:27:28;33.70;86.00
15916;DHT22;8057;47.830;-3.870;2022-08-11T10:31:57;33.40;85.10
15916;DHT22;8057;47.830;-3.870;2022-08-11T10:36:25;33.40;86.30
15916;DHT22;8057;47.830;-3.870;2022-08-11T10:40:37;33.70;85.90
15916;DHT22;8057;47.830;-3.870;2022-08-11T10:44:50;34.00;84.20
15916;DHT22;8057;47.830;-3.870;2022-08-11T10:49:01;34.00;85.20
15916;DHT22;8057;47.830;-3.870;2022-08-11T10:53:12;34.00;85.80
15916;DHT22;8057;47.830;-3.870;2022-08-11T10:57:40;34.30;85.50
15916;DHT22;8057;47.830;-3.870;2022-08-11T11:02:12;34.40;84.50
15916;DHT22;8057;47.830;-3.870;2022-08-11T11:06:26;34.60;85.10
15916;DHT22;8057;47.830;-3.870;2022-08-11T11:10:39;34.80;84.90
15916;DHT22;8057;47.830;-3.870;2022-08-11T11:14:51;34.80;84.30
15916;DHT22;8057;47.830;-3.870;2022-08-11T11:19:24;35.00;85.00
15916;DHT22;8057;47.830;-3.870;2022-08-11T11:23:39;35.20;84.10
15916;DHT22;8057;47.830;-3.870;2022-08-11T11:28:01;35.30;84.30
15916;DHT22;8057;47.830;-3.870;2022-08-11T11:32:23;35.30;85.10
15916;DHT22;8057;47.830;-3.870;2022-08-11T11:36:42;35.20;84.10
15916;DHT22;8057;47.830;-3.870;2022-08-11T11:40:53;35.30;82.50
15916;DHT22;8057;47.830;-3.870;2022-08-11T11:45:17;35.40;82.50
15916;DHT22;8057;47.830;-3.870;2022-08-11T11:49:31;35.10;81.00
15916;DHT22;8057;47.830;-3.870;2022-08-11T11:53:46;35.20;81.20
15916;DHT22;8057;47.830;-3.870;2022-08-11T11:57:57;35.20;81.20
15916;DHT22;8057;47.830;-3.870;2022-08-11T12:02:25;35.20;81.10
15916;DHT22;8057;47.830;-3.870;2022-08-11T12:06:36;35.00;80.60
15916;DHT22;8057;47.830;-3.870;2022-08-11T12:10:47;34.80;80.80
15916;DHT22;8057;47.830;-3.870;2022-08-11T12:14:56;35.20;80.30
15916;DHT22;8057;47.830;-3.870;2022-08-11T12:19:07;35.60;81.50
15916;DHT22;8057;47.830;-3.870;2022-08-11T12:23:19;35.20;78.80
15916;DHT22;8057;47.830;-3.870;2022-08-11T12:27:45;34.90;79.60
15916;DHT22;8057;47.830;-3.870;2022-08-11T12:31:55;35.10;81.70
15916;DHT22;8057;47.830;-3.870;2022-08-11T12:36:05;35.50;80.90
15916;DHT22;8057;47.830;-3.870;2022-08-11T12:40:21;35.80;81.40
15916;DHT22;8057;47.830;-3.870;2022-08-11T12:45:11;36.00;79.60
15916;DHT22;8057;47.830;-3.870;2022-08-11T12:49:43;36.20;80.90
15916;DHT22;8057;47.830;-3.870;2022-08-11T12:54:13;36.10;76.90
15916;DHT22;8057;47.830;-3.870;2022-08-11T12:58:26;35.80;79.00
15916;DHT22;8057;47.830;-3.870;2022-08-11T13:02:36;35.80;78.10
15916;DHT22;8057;47.830;-3.870;2022-08-11T13:07:02;36.10;78.90
15916;DHT22;8057;47.830;-3.870;2022-08-11T13:11:12;36.10;78.50
15916;DHT22;8057;47.830;-3.870;2022-08-11T13:16:02;36.10;79.40
15916;DHT22;8057;47.830;-3.870;2022-08-11T13:20:12;36.00;78.00
15916;DHT22;8057;47.830;-3.870;2022-08-11T13:24:21;36.30;79.30
15916;DHT22;8057;47.830;-3.870;2022-08-11T13:28:30;36.50;78.20
15916;DHT22;8057;47.830;-3.870;2022-08-11T13:32:44;36.60;78.70
15916;DHT22;8057;47.830;-3.870;2022-08-11T13:36:56;36.70;79.70
15916;DHT22;8057;47.830;-3.870;2022-08-11T13:41:06;36.80;79.60
15916;DHT22;8057;47.830;-3.870;2022-08-11T13:45:35;36.50;78.50
15916;DHT22;8057;47.830;-3.870;2022-08-11T13:49:46;36.40;77.60
15916;DHT22;8057;47.830;-3.870;2022-08-11T13:53:55;36.20;75.80
15916;DHT22;8057;47.830;-3.870;2022-08-11T13:58:09;36.20;76.00
15916;DHT22;8057;47.830;-3.870;2022-08-11T14:02:41;36.40;77.30
15916;DHT22;8057;47.830;-3.870;2022-08-11T14:06:53;36.50;78.30
15916;DHT22;8057;47.830;-3.870;2022-08-11T14:11:06;36.40;76.40
15916;DHT22;8057;47.830;-3.870;2022-08-11T14:15:53;36.20;76.90
15916;DHT22;8057;47.830;-3.870;2022-08-11T14:20:10;36.20;78.20
15916;DHT22;8057;47.830;-3.870;2022-08-11T14:24:44;36.40;78.70
15916;DHT22;8057;47.830;-3.870;2022-08-11T14:28:59;35.70;86.70
15916;DHT22;8057;47.830;-3.870;2022-08-11T14:33:09;35.20;86.80
15916;DHT22;8057;47.830;-3.870;2022-08-11T14:37:24;34.90;86.80
15916;DHT22;8057;47.830;-3.870;2022-08-11T14:41:37;34.90;87.10
15916;DHT22;8057;47.830;-3.870;2022-08-11T14:46:19;34.30;90.60
15916;DHT22;8057;47.830;-3.870;2022-08-11T14:50:54;33.10;91.40
15916;DHT22;8057;47.830;-3.870;2022-08-11T14:55:04;32.60;91.30
15916;DHT22;8057;47.830;-3.870;2022-08-11T14:59:33;32.70;91.70
15916;DHT22;8057;47.830;-3.870;2022-08-11T15:03:44;32.80;91.50
15916;DHT22;8057;47.830;-3.870;2022-08-11T15:08:14;32.80;90.90
15916;DHT22;8057;47.830;-3.870;2022-08-11T15:12:24;32.50;91.40
15916;DHT22;8057;47.830;-3.870;2022-08-11T15:16:43;32.30;91.20
15916;DHT22;8057;47.830;-3.870;2022-08-11T15:21:15;32.30;91.20
15916;DHT22;8057;47.830;-3.870;2022-08-11T15:25:48;32.30;91.00
15916;DHT22;8057;47.830;-3.870;2022-08-11T15:30:00;32.30;90.90
15916;DHT22;8057;47.830;-3.870;2022-08-11T15:34:41;32.40;90.50
15916;DHT22;8057;47.830;-3.870;2022-08-11T15:39:17;32.30;90.40
15916;DHT22;8057;47.830;-3.870;2022-08-11T15:43:30;32.20;89.30
15916;DHT22;8057;47.830;-3.870;2022-08-11T15:48:02;32.20;91.40
15916;DHT22;8057;47.830;-3.870;2022-08-11T15:52:21;31.80;92.10
15916;DHT22;8057;47.830;-3.870;2022-08-11T15:56:31;31.80;92.60
15916;DHT22;8057;47.830;-3.870;2022-08-11T16:00:41;31.60;92.50
15916;DHT22;8057;47.830;-3.870;2022-08-11T16:05:15;31.40;92.20
15916;DHT22;8057;47.830;-3.870;2022-08-11T16:09:50;31.50;91.60
15916;DHT22;8057;47.830;-3.870;2022-08-11T16:14:07;31.70;91.60
15916;DHT22;8057;47.830;-3.870;2022-08-11T16:18:37;31.60;90.80
15916;DHT22;8057;47.830;-3.870;2022-08-11T16:22:53;31.60;90.40
15916;DHT22;8057;47.830;-3.870;2022-08-11T16:27:10;31.70;90.00
15916;DHT22;8057;47.830;-3.870;2022-08-11T16:31:21;31.90;90.70
15916;DHT22;8057;47.830;-3.870;2022-08-11T16:35:33;32.00;90.40
15916;DHT22;8057;47.830;-3.870;2022-08-11T16:39:59;32.00;90.00
15916;DHT22;8057;47.830;-3.870;2022-08-11T16:44:12;32.20;89.90
15916;DHT22;8057;47.830;-3.870;2022-08-11T16:48:47;32.40;90.00
15916;DHT22;8057;47.830;-3.870;2022-08-11T16:52:56;32.50;88.70
15916;DHT22;8057;47.830;-3.870;2022-08-11T16:57:06;32.50;89.70
15916;DHT22;8057;47.830;-3.870;2022-08-11T17:01:35;32.60;88.50
15916;DHT22;8057;47.830;-3.870;2022-08-11T17:05:50;32.50;87.10
15916;DHT22;8057;47.830;-3.870;2022-08-11T17:10:20;32.60;86.60
15916;DHT22;8057;47.830;-3.870;2022-08-11T17:15:03;32.60;85.90
15916;DHT22;8057;47.830;-3.870;2022-08-11T17:19:36;32.60;85.60
15916;DHT22;8057;47.830;-3.870;2022-08-11T17:24:09;32.70;85.50
15916;DHT22;8057;47.830;-3.870;2022-08-11T17:28:21;32.70;85.70
15916;DHT22;8057;47.830;-3.870;2022-08-11T17:32:34;32.70;85.60
15916;DHT22;8057;47.830;-3.870;2022-08-11T17:37:07;32.60;85.10
15916;DHT22;8057;47.830;-3.870;2022-08-11T17:41:17;32.50;85.10
15916;DHT22;8057;47.830;-3.870;2022-08-11T17:45:45;32.40;85.60
15916;DHT22;8057;47.830;-3.870;2022-08-11T17:50:14;32.30;85.80
15916;DHT22;8057;47.830;-3.870;2022-08-11T17:54:26;32.00;86.30
15916;DHT22;8057;47.830;-3.870;2022-08-11T17:58:53;31.70;86.70
15916;DHT22;8057;47.830;-3.870;2022-08-11T18:03:21;31.50;87.70
15916;DHT22;8057;47.830;-3.870;2022-08-11T18:07:40;31.40;87.40
15916;DHT22;8057;47.830;-3.870;2022-08-11T18:12:09;31.30;87.60
15916;DHT22;8057;47.830;-3.870;2022-08-11T18:16:36;31.20;87.40
15916;DHT22;8057;47.830;-3.870;2022-08-11T18:21:04;31.00;87.80
15916;DHT22;8057;47.830;-3.870;2022-08-11T18:25:32;31.10;88.90
15916;DHT22;8057;47.830;-3.870;2022-08-11T18:30:00;31.00;88.50
15916;DHT22;8057;47.830;-3.870;2022-08-11T18:34:31;30.90;87.00
15916;DHT22;8057;47.830;-3.870;2022-08-11T18:38:58;30.70;87.40
15916;DHT22;8057;47.830;-3.870;2022-08-11T18:43:26;30.40;87.50
15916;DHT22;8057;47.830;-3.870;2022-08-11T18:47:59;30.10;88.10
15916;DHT22;8057;47.830;-3.870;2022-08-11T18:52:28;30.00;88.80
15916;DHT22;8057;47.830;-3.870;2022-08-11T18:56:57;29.90;89.20
15916;DHT22;8057;47.830;-3.870;2022-08-11T19:01:24;29.80;91.30
15916;DHT22;8057;47.830;-3.870;2022-08-11T19:05:54;29.80;92.30
15916;DHT22;8057;47.830;-3.870;2022-08-11T19:10:43;29.70;92.80
15916;DHT22;8057;47.830;-3.870;2022-08-11T19:15:12;29.50;93.10
15916;DHT22;8057;47.830;-3.870;2022-08-11T19:19:39;29.30;93.50
15916;DHT22;8057;47.830;-3.870;2022-08-11T19:24:08;29.10;93.70
15916;DHT22;8057;47.830;-3.870;2022-08-11T19:28:36;28.80;93.90
15916;DHT22;8057;47.830;-3.870;2022-08-11T19:33:04;28.70;94.10
15916;DHT22;8057;47.830;-3.870;2022-08-11T19:37:50;28.60;94.10
15916;DHT22;8057;47.830;-3.870;2022-08-11T19:42:18;28.40;94.10
15916;DHT22;8057;47.830;-3.870;2022-08-11T19:46:45;28.20;94.30
15916;DHT22;8057;47.830;-3.870;2022-08-11T19:51:13;28.00;94.40
15916;DHT22;8057;47.830;-3.870;2022-08-11T19:55:40;27.90;94.60
15916;DHT22;8057;47.830;-3.870;2022-08-11T20:00:12;27.70;94.90
15916;DHT22;8057;47.830;-3.870;2022-08-11T20:04:38;27.60;95.10
15916;DHT22;8057;47.830;-3.870;2022-08-11T20:09:05;27.30;95.40
15916;DHT22;8057;47.830;-3.870;2022-08-11T20:13:53;27.10;95.70
15916;DHT22;8057;47.830;-3.870;2022-08-11T20:18:22;26.90;96.00
15916;DHT22;8057;47.830;-3.870;2022-08-11T20:22:50;26.80;96.10
15916;DHT22;8057;47.830;-3.870;2022-08-11T20:27:18;26.70;96.30
15916;DHT22;8057;47.830;-3.870;2022-08-11T20:31:45;26.60;96.50
15916;DHT22;8057;47.830;-3.870;2022-08-11T20:36:16;26.40;96.80
15916;DHT22;8057;47.830;-3.870;2022-08-11T20:40:43;26.30;96.90
15916;DHT22;8057;47.830;-3.870;2022-08-11T20:45:12;26.30;97.10
15916;DHT22;8057;47.830;-3.870;2022-08-11T20:49:40;26.20;97.10
15916;DHT22;8057;47.830;-3.870;2022-08-11T20:54:12;26.40;97.10
15916;DHT22;8057;47.830;-3.870;2022-08-11T20:58:49;26.50;97.20
15916;DHT22;8057;47.830;-3.870;2022-08-11T21:03:24;26.40;97.30
15916;DHT22;8057;47.830;-3.870;2022-08-11T21:08:06;26.20;97.40
15916;DHT22;8057;47.830;-3.870;2022-08-11T21:12:38;26.20;97.60
15916;DHT22;8057;47.830;-3.870;2022-08-11T21:17:25;25.70;98.00
15916;DHT22;8057;47.830;-3.870;2022-08-11T21:22:16;25.40;98.50
15916;DHT22;8057;47.830;-3.870;2022-08-11T21:26:45;25.20;98.80
15916;DHT22;8057;47.830;-3.870;2022-08-11T21:31:14;25.40;98.70
15916;DHT22;8057;47.830;-3.870;2022-08-11T21:35:41;25.40;98.50
15916;DHT22;8057;47.830;-3.870;2022-08-11T21:40:09;25.50;98.40
15916;DHT22;8057;47.830;-3.870;2022-08-11T21:44:36;25.20;98.50
15916;DHT22;8057;47.830;-3.870;2022-08-11T21:49:06;25.10;98.70
15916;DHT22;8057;47.830;-3.870;2022-08-11T21:53:33;25.10;98.80
15916;DHT22;8057;47.830;-3.870;2022-08-11T21:58:00;25.00;98.80
15916;DHT22;8057;47.830;-3.870;2022-08-11T22:02:27;25.20;98.70
15916;DHT22;8057;47.830;-3.870;2022-08-11T22:07:01;25.30;98.40
15916;DHT22;8057;47.830;-3.870;2022-08-11T22:11:28;25.20;98.40
15916;DHT22;8057;47.830;-3.870;2022-08-11T22:16:14;24.90;98.70
15916;DHT22;8057;47.830;-3.870;2022-08-11T22:20:40;24.80;99.00
15916;DHT22;8057;47.830;-3.870;2022-08-11T22:25:10;24.60;99.20
15916;DHT22;8057;47.830;-3.870;2022-08-11T22:29:44;24.50;99.30
15916;DHT22;8057;47.830;-3.870;2022-08-11T22:34:11;24.40;99.30
15916;DHT22;8057;47.830;-3.870;2022-08-11T22:38:47;24.40;99.30
15916;DHT22;8057;47.830;-3.870;2022-08-11T22:43:16;24.40;99.40
15916;DHT22;8057;47.830;-3.870;2022-08-11T22:47:43;24.30;99.40
15916;DHT22;8057;47.830;-3.870;2022-08-11T22:52:12;24.30;99.60
15916;DHT22;8057;47.830;-3.870;2022-08-11T22:56:39;24.20;99.60
15916;DHT22;8057;47.830;-3.870;2022-08-11T23:01:08;24.20;99.50
15916;DHT22;8057;47.830;-3.870;2022-08-11T23:05:35;24.20;99.50
15916;DHT22;8057;47.830;-3.870;2022-08-11T23:10:03;24.20;99.60
15916;DHT22;8057;47.830;-3.870;2022-08-11T23:14:30;24.20;99.40
15916;DHT22;8057;47.830;-3.870;2022-08-11T23:18:58;24.20;99.40
15916;DHT22;8057;47.830;-3.870;2022-08-11T23:23:45;24.20;99.40
15916;DHT22;8057;47.830;-3.870;2022-08-11T23:28:14;24.10;99.50
15916;DHT22;8057;47.830;-3.870;2022-08-11T23:32:44;24.10;99.50
15916;DHT22;8057;47.830;-3.870;2022-08-11T23:37:12;24.10;99.60
15916;DHT22;8057;47.830;-3.870;2022-08-11T23:41:42;24.10;99.70
15916;DHT22;8057;47.830;-3.870;2022-08-11T23:46:08;24.00;99.70
15916;DHT22;8057;47.830;-3.870;2022-08-11T23:50:35;24.00;99.80
15916;DHT22;8057;47.830;-3.870;2022-08-11T23:55:04;23.90;99.90
15916;DHT22;8057;47.830;-3.870;2022-08-11T23:59:31;23.80;99.90
